Time;durP1;ratioP1;P1;durP2;ratioP2;P2;SDS_P1;SDS_P2;PMS_P1;PMS_P2;Temp;Humidity;BMP_temperature;BMP_pressure;BME280_temperature;BME280_humidity;BME280_pressure;Samples;Min_cycle;Max_cycle;Signal;HPM_P1;HPM_P2
2022/12/24 00:02:13;;;;;;;5.20;1.25;;;10.80;99.90;;;;;;5006193;28;20029;-80
2022/12/24 00:04:38;;;;;;;2.10;0.60;;;10.80;99.90;;;;;;5025676;28;20072;-79
2022/12/24 00:07:04;;;;;;;4.30;0.95;;;10.70;99.90;;;;;;5020922;28;20044;-79
2022/12/24 00:09:30;;;;;;;5.65;1.00;;;10.80;99.90;;;;;;5007814;28;20071;-79
2022/12/24 00:11:56;;;;;;;6.47;1.38;;;10.70;99.90;;;;;;5023238;28;20469;-78
2022/12/24 00:14:21;;;;;;;2.40;1.20;;;10.70;99.90;;;;;;5008223;28;20552;-79
2022/12/24 00:16:47;;;;;;;5.53;1.10;;;10.70;99.90;;;;;;5004767;28;20163;-79
2022/12/24 00:19:13;;;;;;;6.80;1.15;;;10.70;99.90;;;;;;5025861;28;20493;-79
2022/12/24 00:21:38;;;;;;;2.22;0.80;;;10.70;99.90;;;;;;5025624;28;20053;-79
2022/12/24 00:24:04;;;;;;;4.28;0.85;;;10.70;99.90;;;;;;5013147;28;20025;-79
2022/12/24 00:26:31;;;;;;;5.97;0.98;;;10.70;99.90;;;;;;5031927;28;20025;-79
2022/12/24 00:28:57;;;;;;;4.15;1.00;;;10.70;99.90;;;;;;5024894;28;20033;-79
2022/12/24 00:31:23;;;;;;;5.50;0.82;;;10.70;99.90;;;;;;5030450;28;20025;-79
2022/12/24 00:33:49;;;;;;;5.03;1.40;;;10.70;99.90;;;;;;5008459;28;20116;-79
2022/12/24 00:36:15;;;;;;;3.47;0.90;;;10.70;99.90;;;;;;5011278;28;20454;-79
2022/12/24 00:38:41;;;;;;;3.63;1.10;;;10.70;99.90;;;;;;5024192;28;20029;-79
2022/12/24 00:41:23;;;;;;;4.53;1.10;;;10.70;99.90;;;;;;5028174;28;20504;-79
2022/12/24 00:43:51;;;;;;;8.10;1.48;;;10.70;99.90;;;;;;5027480;28;20087;-79
2022/12/24 00:46:16;;;;;;;9.65;1.58;;;10.70;99.90;;;;;;5032923;28;20041;-80
2022/12/24 00:48:42;;;;;;;7.10;1.25;;;10.70;99.90;;;;;;5025774;28;20032;-79
2022/12/24 00:51:08;;;;;;;4.45;0.80;;;10.70;99.90;;;;;;5031419;28;20037;-79
2022/12/24 00:53:33;;;;;;;9.70;2.03;;;10.60;99.90;;;;;;5014210;28;20113;-79
2022/12/24 00:55:59;;;;;;;4.75;1.17;;;10.60;99.90;;;;;;5025655;28;20080;-79
2022/12/24 00:58:25;;;;;;;9.00;1.05;;;10.60;99.90;;;;;;5025114;28;20022;-79
2022/12/24 01:00:50;;;;;;;4.30;1.20;;;10.60;99.90;;;;;;5024063;28;20525;-79
2022/12/24 01:03:16;;;;;;;2.78;0.90;;;10.60;99.90;;;;;;5025277;28;20027;-79
2022/12/24 01:05:41;;;;;;;8.15;1.42;;;10.60;99.90;;;;;;5008360;28;20137;-79
2022/12/24 01:08:07;;;;;;;5.13;1.00;;;10.50;99.90;;;;;;5025368;28;20036;-79
2022/12/24 01:10:33;;;;;;;4.78;1.13;;;10.50;99.90;;;;;;5024012;28;20029;-79
2022/12/24 01:13:02;;;;;;;5.85;1.50;;;10.50;99.90;;;;;;5011631;28;20026;-79
2022/12/24 01:15:29;;;;;;;2.88;0.95;;;10.50;99.90;;;;;;5030411;28;20045;-79
2022/12/24 01:17:54;;;;;;;3.30;1.00;;;10.50;99.90;;;;;;5008788;28;20025;-79
2022/12/24 01:20:20;;;;;;;4.90;1.33;;;10.50;99.90;;;;;;5008758;28;20034;-78
2022/12/24 01:22:47;;;;;;;3.95;1.02;;;10.50;99.90;;;;;;5027028;28;20033;-79
2022/12/24 01:25:14;;;;;;;6.78;1.65;;;10.50;99.90;;;;;;5028400;28;20394;-79
2022/12/24 01:27:40;;;;;;;6.35;1.10;;;10.50;99.90;;;;;;5028512;28;20432;-79
2022/12/24 01:30:07;;;;;;;5.45;1.00;;;10.50;99.90;;;;;;5025022;28;20030;-79
2022/12/24 01:32:33;;;;;;;5.32;1.10;;;10.40;99.90;;;;;;5028468;28;20028;-79
2022/12/24 01:34:59;;;;;;;3.47;1.38;;;10.40;99.90;;;;;;5025177;28;20040;-79
2022/12/24 01:37:25;;;;;;;7.35;1.23;;;10.40;99.90;;;;;;5027186;28;20025;-79
2022/12/24 01:43:22;;;;;;;8.82;1.35;;;10.40;99.90;;;;;;5021821;28;20072;-79
2022/12/24 01:45:49;;;;;;;3.13;0.85;;;10.50;99.90;;;;;;5024587;28;21098;-79
2022/12/24 01:48:18;;;;;;;3.95;1.10;;;10.50;99.90;;;;;;4983928;28;20485;-79
2022/12/24 01:50:45;;;;;;;9.75;1.55;;;10.50;99.90;;;;;;5026065;28;20083;-79
2022/12/24 01:53:12;;;;;;;8.48;1.33;;;10.50;99.90;;;;;;5025034;28;20547;-79
2022/12/24 01:55:39;;;;;;;4.75;1.25;;;10.50;99.90;;;;;;5027111;28;20027;-79
2022/12/24 01:58:08;;;;;;;6.57;1.48;;;10.50;99.90;;;;;;4988576;28;20110;-79
2022/12/24 02:00:34;;;;;;;7.50;1.45;;;10.50;99.90;;;;;;5024729;28;20022;-79
2022/12/24 02:03:00;;;;;;;8.15;1.42;;;10.50;99.90;;;;;;5023595;28;20087;-79
2022/12/24 02:05:34;;;;;;;7.93;1.65;;;10.40;99.90;;;;;;5023681;28;20478;-79
2022/12/24 02:08:03;;;;;;;5.95;1.38;;;10.40;99.90;;;;;;5025328;28;20486;-79
2022/12/24 02:10:28;;;;;;;5.72;1.15;;;10.50;99.90;;;;;;5026707;28;20120;-79
2022/12/24 02:12:55;;;;;;;6.15;0.95;;;10.40;99.90;;;;;;5025538;28;20116;-79
2022/12/24 02:15:21;;;;;;;6.65;1.52;;;10.40;99.90;;;;;;5027463;28;20037;-79
2022/12/24 02:18:13;;;;;;;5.22;1.42;;;10.40;99.90;;;;;;5024450;28;20052;-79
2022/12/24 02:21:30;;;;;;;10.05;1.60;;;10.40;99.90;;;;;;5023593;28;20021;-79
2022/12/24 02:24:26;;;;;;;10.82;2.53;;;10.40;99.90;;;;;;5007161;28;20091;-78
2022/12/24 02:27:14;;;;;;;6.45;1.48;;;10.40;99.90;;;;;;5026438;28;20402;-79
2022/12/24 02:29:55;;;;;;;7.00;1.55;;;10.40;99.90;;;;;;5014203;28;20041;-79
2022/12/24 02:32:44;;;;;;;6.68;1.27;;;10.40;99.90;;;;;;5009456;28;20116;-79
2022/12/24 02:35:13;;;;;;;3.53;1.45;;;10.30;99.90;;;;;;5015249;28;20379;-79
2022/12/24 02:37:46;;;;;;;3.55;1.42;;;10.30;99.90;;;;;;5025019;28;20025;-79
2022/12/24 02:40:17;;;;;;;3.35;1.10;;;10.30;99.90;;;;;;5011443;28;20030;-79
2022/12/24 02:42:48;;;;;;;7.88;1.10;;;10.30;99.90;;;;;;5023018;28;20112;-79
2022/12/24 02:45:19;;;;;;;6.35;1.17;;;10.30;99.90;;;;;;5017167;28;20041;-79
2022/12/24 02:47:46;;;;;;;7.18;1.20;;;10.30;99.90;;;;;;5024635;28;20029;-79
2022/12/24 02:50:15;;;;;;;4.43;1.42;;;10.30;99.90;;;;;;5025087;28;20029;-79
2022/12/24 02:52:43;;;;;;;4.78;1.20;;;10.30;99.90;;;;;;5021758;28;20516;-79
2022/12/24 02:55:38;;;;;;;4.75;0.98;;;10.30;99.90;;;;;;5005086;28;20073;-78
2022/12/24 02:58:06;;;;;;;;;;;10.30;99.90;;;;;;5015207;28;20040;-79
2022/12/24 03:00:52;;;;;;;5.63;0.70;;;10.30;99.90;;;;;;5009682;28;20395;-79
2022/12/24 03:03:37;;;;;;;7.35;1.55;;;10.30;99.90;;;;;;5023164;28;20033;-79
2022/12/24 03:06:21;;;;;;;2.75;1.00;;;10.30;99.90;;;;;;5023806;28;20056;-78
2022/12/24 03:09:21;;;;;;;5.57;0.80;;;10.30;99.90;;;;;;5021477;28;20047;-78
2022/12/24 03:12:12;;;;;;;4.55;0.90;;;10.30;99.90;;;;;;4981582;28;20374;-78
2022/12/24 03:14:40;;;;;;;5.25;1.10;;;10.30;99.90;;;;;;5016844;28;20053;-78
2022/12/24 03:17:07;;;;;;;6.95;1.35;;;10.30;99.90;;;;;;5028800;28;20116;-79
2022/12/24 03:19:33;;;;;;;7.13;1.15;;;10.30;99.90;;;;;;5023342;28;20026;-78
2022/12/24 03:22:03;;;;;;;6.40;1.88;;;10.30;99.90;;;;;;5024674;28;21066;-79
2022/12/24 03:24:28;;;;;;;8.38;1.17;;;10.30;99.90;;;;;;5012403;28;20041;-79
2022/12/24 03:26:55;;;;;;;6.20;1.58;;;10.30;99.90;;;;;;5024881;28;20046;-78
2022/12/24 03:29:20;;;;;;;3.20;0.98;;;10.40;99.90;;;;;;5027733;28;20436;-77
2022/12/24 03:31:49;;;;;;;9.75;1.42;;;10.40;99.90;;;;;;5030499;28;20083;-77
2022/12/24 03:34:16;;;;;;;6.28;1.63;;;10.40;99.90;;;;;;5026205;28;20113;-78
2022/12/24 03:36:42;;;;;;;7.93;1.50;;;10.40;99.90;;;;;;5029700;28;20030;-78
2022/12/24 03:39:08;;;;;;;6.30;1.70;;;10.40;99.90;;;;;;5026649;28;20029;-78
2022/12/24 03:41:35;;;;;;;5.20;1.30;;;10.50;99.90;;;;;;5014469;28;20548;-78
2022/12/24 03:44:01;;;;;;;8.40;1.52;;;10.50;99.90;;;;;;5025130;28;20037;-78
2022/12/24 03:46:27;;;;;;;8.13;1.55;;;10.50;99.90;;;;;;5021138;28;20072;-78
2022/12/24 03:48:53;;;;;;;5.38;1.40;;;10.50;99.90;;;;;;5021033;28;20640;-78
2022/12/24 03:51:21;;;;;;;8.00;1.30;;;10.50;99.90;;;;;;5010308;28;20032;-78
2022/12/24 03:53:47;;;;;;;5.45;1.77;;;10.50;99.90;;;;;;5021293;28;20131;-78
2022/12/24 03:56:13;;;;;;;5.13;0.93;;;10.50;99.90;;;;;;5020005;28;20029;-79
2022/12/24 03:58:38;;;;;;;4.70;1.35;;;10.50;99.90;;;;;;5027806;28;20028;-79
2022/12/24 04:01:04;;;;;;;10.38;1.45;;;10.50;99.90;;;;;;5028547;28;20030;-78
2022/12/24 04:03:30;;;;;;;9.50;1.48;;;10.50;99.90;;;;;;5027468;28;20409;-78
2022/12/24 04:06:04;;;;;;;5.95;1.67;;;10.50;99.90;;;;;;5023431;28;20508;-78
2022/12/24 04:08:30;;;;;;;9.15;1.33;;;10.50;99.90;;;;;;5026867;28;20021;-79
2022/12/24 04:10:55;;;;;;;10.90;1.23;;;10.40;99.90;;;;;;5029944;28;20018;-79
2022/12/24 04:13:21;;;;;;;4.82;1.30;;;10.40;99.90;;;;;;5031348;28;20455;-79
2022/12/24 04:15:59;;;;;;;9.02;1.33;;;10.40;99.90;;;;;;5022878;28;20037;-79
2022/12/24 04:18:26;;;;;;;7.35;1.50;;;10.40;99.90;;;;;;5028982;28;20390;-79
2022/12/24 04:20:52;;;;;;;10.82;1.38;;;10.40;99.90;;;;;;5029411;28;20032;-79
2022/12/24 04:23:17;;;;;;;9.40;1.48;;;10.40;99.90;;;;;;5027428;28;20534;-78
2022/12/24 04:25:43;;;;;;;7.45;1.45;;;10.40;99.90;;;;;;5025610;28;20029;-78
2022/12/24 04:28:12;;;;;;;4.50;0.98;;;10.40;99.90;;;;;;5009985;28;20524;-78
2022/12/24 04:30:38;;;;;;;6.65;1.10;;;10.30;99.90;;;;;;5030327;28;20099;-78
2022/12/24 04:33:04;;;;;;;7.20;1.27;;;10.40;99.90;;;;;;5030782;28;20049;-79
2022/12/24 04:35:30;;;;;;;4.72;1.20;;;10.30;99.90;;;;;;5026743;28;20413;-78
2022/12/24 04:37:55;;;;;;;5.57;1.25;;;10.30;99.90;;;;;;5024935;28;20029;-79
2022/12/24 04:40:21;;;;;;;11.07;1.75;;;10.30;99.90;;;;;;5025243;28;20382;-79
2022/12/24 04:42:47;;;;;;;6.22;1.17;;;10.30;99.90;;;;;;5024859;28;20064;-78
2022/12/24 04:45:12;;;;;;;8.30;1.45;;;10.30;99.90;;;;;;5030063;28;20025;-78
2022/12/24 04:47:38;;;;;;;6.22;1.20;;;10.30;99.90;;;;;;5028613;28;20037;-79
2022/12/24 04:50:04;;;;;;;3.90;1.10;;;10.30;99.90;;;;;;5029631;28;20123;-79
2022/12/24 04:52:29;;;;;;;5.43;1.30;;;10.30;99.90;;;;;;5009665;28;20045;-79
2022/12/24 04:54:55;;;;;;;6.35;1.40;;;10.30;99.90;;;;;;5022064;28;20085;-79
2022/12/24 04:57:20;;;;;;;7.53;2.10;;;10.30;99.90;;;;;;5011786;28;20029;-79
2022/12/24 04:59:46;;;;;;;5.18;1.70;;;10.30;99.90;;;;;;5026470;28;20022;-79
2022/12/24 05:02:12;;;;;;;6.45;1.40;;;10.30;99.90;;;;;;5023710;28;20033;-79
2022/12/24 05:04:37;;;;;;;7.00;1.25;;;10.30;99.90;;;;;;5028031;28;20108;-78
2022/12/24 05:07:03;;;;;;;8.38;1.38;;;10.30;99.90;;;;;;5025559;28;20030;-79
2022/12/24 05:09:29;;;;;;;5.22;1.00;;;10.30;99.90;;;;;;5025763;28;20033;-78
2022/12/24 05:11:55;;;;;;;6.65;1.30;;;10.30;99.90;;;;;;5008985;28;20033;-78
2022/12/24 05:14:20;;;;;;;8.57;1.40;;;10.30;99.90;;;;;;5027244;28;20079;-79
2022/12/24 05:16:46;;;;;;;5.72;1.50;;;10.30;99.90;;;;;;5025946;28;20143;-79
2022/12/24 05:19:11;;;;;;;5.28;1.00;;;10.30;99.90;;;;;;5027912;28;20108;-79
2022/12/24 05:21:37;;;;;;;7.00;1.17;;;10.30;99.90;;;;;;5028973;28;20041;-78
2022/12/24 05:26:56;;;;;;;4.93;1.60;;;10.30;99.90;;;;;;5028834;28;20083;-78
2022/12/24 05:29:22;;;;;;;7.13;1.38;;;10.40;99.90;;;;;;5028543;28;20363;-78
2022/12/24 05:31:48;;;;;;;8.45;1.73;;;10.40;99.90;;;;;;5030664;28;20036;-79
2022/12/24 05:34:15;;;;;;;5.97;1.23;;;10.40;99.90;;;;;;5030381;28;20029;-79
2022/12/24 05:36:41;;;;;;;6.47;1.48;;;10.40;99.90;;;;;;5024966;28;20346;-78
2022/12/24 05:39:12;;;;;;;6.82;1.48;;;10.40;99.90;;;;;;5024496;28;20034;-78
2022/12/24 05:41:37;;;;;;;4.82;1.17;;;10.40;99.90;;;;;;5025883;28;20022;-78
2022/12/24 05:44:03;;;;;;;9.77;1.95;;;10.50;99.90;;;;;;5029483;28;20042;-78
2022/12/24 05:46:29;;;;;;;4.32;1.30;;;10.40;99.90;;;;;;5027466;28;20064;-79
2022/12/24 05:48:54;;;;;;;3.50;1.27;;;10.40;99.90;;;;;;5027812;28;20386;-78
2022/12/24 05:51:21;;;;;;;6.40;1.70;;;10.40;99.90;;;;;;5030344;28;20389;-78
2022/12/24 05:53:48;;;;;;;7.43;1.92;;;10.30;99.90;;;;;;5030430;28;20123;-78
2022/12/24 05:56:19;;;;;;;4.63;1.40;;;10.30;99.90;;;;;;5011887;28;20056;-78
2022/12/24 05:58:45;;;;;;;5.78;2.20;;;10.30;99.90;;;;;;5026212;28;20018;-78
2022/12/24 06:01:11;;;;;;;8.13;1.80;;;10.30;99.90;;;;;;5028277;28;20374;-78
2022/12/24 06:03:37;;;;;;;6.82;1.60;;;10.30;99.90;;;;;;5028643;28;20096;-77
2022/12/24 06:06:08;;;;;;;6.32;1.38;;;10.20;99.90;;;;;;5009092;28;20116;-77
2022/12/24 06:08:35;;;;;;;6.85;1.48;;;10.20;99.90;;;;;;5028293;28;20046;-78
2022/12/24 06:11:03;;;;;;;10.38;2.10;;;10.20;99.90;;;;;;5028408;28;20037;-78
2022/12/24 06:13:29;;;;;;;4.95;1.48;;;10.20;99.90;;;;;;5020030;28;20540;-78
2022/12/24 06:15:56;;;;;;;7.70;1.65;;;10.10;99.90;;;;;;4991031;28;20041;-78
2022/12/24 06:18:22;;;;;;;4.35;1.00;;;10.20;99.90;;;;;;5003792;28;20463;-78
2022/12/24 06:20:55;;;;;;;8.35;1.88;;;10.20;99.90;;;;;;5024739;28;20088;-78
2022/12/24 06:23:22;;;;;;;7.38;1.83;;;10.10;99.90;;;;;;5010396;28;20034;-78
2022/12/24 06:25:49;;;;;;;9.90;1.30;;;10.10;99.90;;;;;;5023453;28;20493;-79
2022/12/24 06:28:14;;;;;;;10.80;1.88;;;10.10;99.90;;;;;;5006223;28;20196;-78
2022/12/24 06:30:44;;;;;;;6.53;1.55;;;10.10;99.90;;;;;;5009382;28;20034;-78
2022/12/24 06:33:10;;;;;;;10.55;1.58;;;10.10;99.90;;;;;;5010322;28;20727;-78
2022/12/24 06:35:35;;;;;;;8.98;1.60;;;10.00;99.90;;;;;;5008955;28;20025;-78
2022/12/24 06:38:01;;;;;;;7.10;1.27;;;10.00;99.90;;;;;;5006346;28;20064;-78
2022/12/24 06:40:27;;;;;;;7.72;1.40;;;10.00;99.90;;;;;;5007408;28;20065;-78
2022/12/24 06:42:52;;;;;;;9.43;1.73;;;10.00;99.90;;;;;;5006520;28;20068;-78
2022/12/24 06:45:18;;;;;;;8.38;1.55;;;10.00;99.90;;;;;;5008376;28;20034;-75
2022/12/24 06:47:44;;;;;;;9.63;1.75;;;9.90;99.90;;;;;;5003802;28;20018;-75
2022/12/24 06:50:09;;;;;;;8.60;1.42;;;10.10;99.90;;;;;;5004504;28;20458;-75
2022/12/24 06:52:35;;;;;;;6.65;1.27;;;10.30;99.90;;;;;;5011027;28;20433;-78
2022/12/24 06:55:01;;;;;;;6.88;1.42;;;10.30;99.90;;;;;;5006600;28;20058;-78
2022/12/24 06:57:27;;;;;;;8.77;1.55;;;10.30;99.90;;;;;;5008377;28;20026;-77
2022/12/24 06:59:53;;;;;;;12.00;1.80;;;10.20;99.90;;;;;;4998169;28;20697;-78
2022/12/24 07:02:18;;;;;;;5.45;1.85;;;10.20;99.90;;;;;;4997152;28;20034;-78
2022/12/24 07:04:44;;;;;;;3.78;1.00;;;10.10;99.90;;;;;;5006458;28;20102;-79
2022/12/24 07:07:10;;;;;;;6.75;2.00;;;10.10;99.90;;;;;;5019570;28;20029;-78
2022/12/24 07:09:35;;;;;;;9.82;2.38;;;10.10;99.90;;;;;;5009687;28;20030;-76
2022/12/24 07:12:01;;;;;;;6.97;1.92;;;10.10;99.90;;;;;;5008356;28;20026;-77
2022/12/24 07:14:26;;;;;;;9.20;2.00;;;10.00;99.90;;;;;;5007544;28;20030;-77
2022/12/24 07:16:52;;;;;;;7.15;1.90;;;10.00;99.90;;;;;;5007751;28;20022;-78
2022/12/24 07:19:18;;;;;;;8.57;2.13;;;10.00;99.90;;;;;;5011442;28;20018;-78
2022/12/24 07:21:43;;;;;;;8.45;1.65;;;10.00;99.90;;;;;;5008921;28;20026;-79
2022/12/24 07:24:09;;;;;;;7.40;1.63;;;9.90;99.90;;;;;;5024643;28;20105;-78
2022/12/24 07:26:35;;;;;;;7.40;1.75;;;9.90;99.90;;;;;;5020490;28;20038;-78
2022/12/24 07:29:00;;;;;;;8.07;1.80;;;9.90;99.90;;;;;;5029989;28;20036;-79
2022/12/24 07:31:26;;;;;;;7.43;2.17;;;9.90;99.90;;;;;;5017618;28;20046;-79
2022/12/24 07:33:52;;;;;;;13.27;2.85;;;9.90;99.90;;;;;;5008680;28;20068;-78
2022/12/24 07:36:20;;;;;;;6.57;1.33;;;9.90;99.90;;;;;;5024283;28;20029;-79
2022/12/24 07:38:45;;;;;;;7.28;1.58;;;9.90;99.90;;;;;;5026343;28;20018;-79
2022/12/24 07:41:11;;;;;;;13.82;2.38;;;9.90;99.90;;;;;;5020715;28;20025;-79
2022/12/24 07:43:37;;;;;;;6.22;1.30;;;9.90;99.90;;;;;;5010898;28;20560;-79
2022/12/24 07:46:02;;;;;;;9.77;2.40;;;9.90;99.90;;;;;;5005909;28;20628;-78
2022/12/24 07:48:30;;;;;;;10.32;1.90;;;9.90;99.90;;;;;;5012383;28;20109;-78
2022/12/24 07:50:56;;;;;;;9.30;2.00;;;9.90;99.90;;;;;;5005788;28;20474;-78
2022/12/24 07:53:22;;;;;;;12.35;2.25;;;9.90;99.90;;;;;;5005113;28;20108;-78
2022/12/24 07:55:48;;;;;;;9.80;1.70;;;9.90;99.90;;;;;;5009116;28;20557;-77
2022/12/24 07:58:14;;;;;;;8.75;1.60;;;9.90;99.90;;;;;;5011534;28;20045;-77
2022/12/24 08:00:40;;;;;;;6.72;1.67;;;9.90;99.90;;;;;;5011015;28;20080;-77
2022/12/24 08:03:05;;;;;;;13.02;2.88;;;9.80;99.90;;;;;;5012715;28;20036;-77
2022/12/24 08:05:35;;;;;;;8.07;1.90;;;9.80;99.90;;;;;;5011604;28;20109;-78
2022/12/24 08:08:01;;;;;;;9.55;1.52;;;9.80;99.90;;;;;;5009901;28;20123;-77
2022/12/24 08:10:26;;;;;;;12.90;2.30;;;9.80;99.90;;;;;;5008606;28;20112;-77
2022/12/24 08:12:52;;;;;;;10.05;2.38;;;9.90;99.90;;;;;;5009160;28;20117;-77
2022/12/24 08:15:18;;;;;;;11.32;2.28;;;9.80;99.90;;;;;;5004234;28;20109;-78
2022/12/24 08:17:44;;;;;;;9.77;2.42;;;9.90;99.90;;;;;;5009770;28;20034;-77
2022/12/24 08:20:10;;;;;;;5.68;1.50;;;9.90;99.90;;;;;;5009779;28;20025;-77
2022/12/24 08:22:36;;;;;;;8.95;2.05;;;9.90;99.90;;;;;;5009706;28;20470;-77
2022/12/24 08:25:02;;;;;;;13.27;2.08;;;9.90;99.90;;;;;;5008162;28;20038;-77
2022/12/24 08:27:28;;;;;;;5.80;1.63;;;9.90;99.90;;;;;;5006805;28;20398;-77
2022/12/24 08:29:53;;;;;;;7.57;2.35;;;10.00;99.90;;;;;;5013328;28;20025;-77
2022/12/24 08:32:19;;;;;;;9.38;2.22;;;10.00;99.90;;;;;;5005601;28;20030;-78
2022/12/24 08:34:45;;;;;;;7.10;2.00;;;10.00;99.90;;;;;;5012850;28;20414;-78
2022/12/24 08:37:10;;;;;;;8.88;2.58;;;10.00;99.90;;;;;;5008389;28;20026;-78
2022/12/24 08:39:36;;;;;;;11.70;2.40;;;10.10;99.90;;;;;;5012242;28;20029;-78
2022/12/24 08:42:02;;;;;;;14.10;3.60;;;10.10;99.90;;;;;;5009674;28;20029;-78
2022/12/24 08:44:27;;;;;;;7.32;1.77;;;10.10;99.90;;;;;;5008956;28;20099;-78
2022/12/24 08:46:53;;;;;;;8.60;1.83;;;10.20;99.90;;;;;;5011187;28;20061;-77
2022/12/24 08:49:19;;;;;;;8.23;2.25;;;10.10;99.90;;;;;;5009894;28;20030;-77
2022/12/24 08:51:44;;;;;;;19.92;4.22;;;10.20;99.90;;;;;;5009162;28;20168;-76
2022/12/24 08:54:10;;;;;;;9.75;2.30;;;10.20;99.90;;;;;;5010417;28;20076;-77
2022/12/24 08:56:35;;;;;;;7.80;2.50;;;10.30;99.90;;;;;;5008432;28;20025;-77
2022/12/24 08:59:01;;;;;;;14.07;1.83;;;10.30;99.90;;;;;;5013731;28;20022;-76
2022/12/24 09:01:27;;;;;;;11.30;2.17;;;10.30;99.90;;;;;;5010164;28;20022;-76
2022/12/24 09:03:52;;;;;;;7.93;2.28;;;10.40;99.90;;;;;;5012672;28;20030;-76
2022/12/24 09:06:18;;;;;;;11.98;2.10;;;10.40;99.90;;;;;;5008601;28;20045;-77
2022/12/24 09:08:44;;;;;;;10.13;2.03;;;10.50;99.90;;;;;;5012474;28;20018;-77
2022/12/24 09:11:13;;;;;;;11.18;2.20;;;10.50;99.90;;;;;;5011390;28;20087;-77
2022/12/24 09:13:38;;;;;;;11.98;2.08;;;10.60;99.90;;;;;;5011849;28;20108;-77
2022/12/24 09:16:04;;;;;;;9.40;2.42;;;10.70;99.90;;;;;;5005561;28;20435;-77
2022/12/24 09:18:30;;;;;;;15.80;2.45;;;10.70;99.90;;;;;;5005308;28;20068;-77
2022/12/24 09:21:07;;;;;;;8.98;2.05;;;10.80;99.90;;;;;;5007132;28;20516;-76
2022/12/24 09:23:39;;;;;;;8.82;1.80;;;10.80;99.90;;;;;;5009277;28;20033;-78
2022/12/24 09:26:07;;;;;;;9.85;1.83;;;10.80;99.90;;;;;;5009136;28;20034;-77
2022/12/24 09:28:33;;;;;;;8.10;2.30;;;10.80;99.90;;;;;;5008446;28;20422;-77
2022/12/24 09:31:01;;;;;;;13.38;1.88;;;10.80;99.90;;;;;;5008766;28;20022;-77
2022/12/24 09:33:33;;;;;;;6.95;1.95;;;10.80;99.90;;;;;;5007870;28;20046;-77
2022/12/24 09:35:59;;;;;;;7.97;1.83;;;10.80;99.90;;;;;;5010519;28;20034;-77
2022/12/24 09:38:25;;;;;;;10.50;2.20;;;10.90;99.90;;;;;;5009846;28;20036;-77
2022/12/24 09:40:52;;;;;;;6.50;1.73;;;10.80;99.90;;;;;;5011423;28;20066;-77
2022/12/24 09:43:21;;;;;;;7.72;1.55;;;10.90;99.90;;;;;;5010316;28;20042;-77
2022/12/24 09:46:20;;;;;;;8.98;2.20;;;10.80;99.90;;;;;;5007321;28;20060;-77
2022/12/24 09:48:51;;;;;;;11.52;1.90;;;10.90;99.90;;;;;;5007395;28;20025;-77
2022/12/24 09:51:25;;;;;;;13.55;1.92;;;10.90;99.90;;;;;;5006753;28;20042;-77
2022/12/24 09:54:03;;;;;;;;;;;10.90;99.90;;;;;;5009877;28;20044;-77
2022/12/24 09:56:38;;;;;;;6.90;1.55;;;10.90;99.90;;;;;;5008575;28;19909;-77
2022/12/24 09:59:09;;;;;;;8.60;1.52;;;10.90;99.90;;;;;;5009363;28;20030;-76
2022/12/24 10:01:35;;;;;;;12.38;2.13;;;10.90;99.90;;;;;;5005436;28;20030;-76
2022/12/24 10:04:06;;;;;;;7.10;1.63;;;10.90;99.90;;;;;;5006894;28;20030;-76
2022/12/24 10:07:01;;;;;;;11.32;1.85;;;10.90;99.90;;;;;;5013669;28;20018;-77
2022/12/24 10:09:38;;;;;;;6.55;2.13;;;10.90;99.90;;;;;;5021092;28;20112;-76
2022/12/24 10:12:21;;;;;;;13.85;2.00;;;10.90;99.90;;;;;;5007578;28;20018;-77
2022/12/24 10:14:46;;;;;;;9.00;2.03;;;11.00;99.90;;;;;;5011613;28;20026;-77
2022/12/24 10:17:26;;;;;;;11.75;2.50;;;11.10;99.90;;;;;;5007616;28;20030;-77
2022/12/24 10:20:03;;;;;;;8.80;2.05;;;11.10;99.90;;;;;;5010748;28;20037;-77
2022/12/24 10:22:36;;;;;;;15.02;2.35;;;11.20;99.90;;;;;;5009120;28;20051;-77
2022/12/24 10:25:26;;;;;;;6.18;1.45;;;11.30;99.90;;;;;;5008431;28;20026;-78
2022/12/24 10:27:54;;;;;;;7.93;1.88;;;11.40;99.90;;;;;;5013452;28;20026;-79
2022/12/24 10:30:22;;;;;;;9.18;2.15;;;11.50;99.90;;;;;;5015635;28;20025;-77
2022/12/24 10:32:52;;;;;;;6.15;1.85;;;11.50;99.90;;;;;;5034207;28;20026;-77
2022/12/24 10:35:28;;;;;;;8.40;1.80;;;11.50;99.90;;;;;;5031339;28;20022;-78
2022/12/24 10:37:56;;;;;;;10.52;1.80;;;11.60;99.90;;;;;;5048144;28;20010;-77
2022/12/24 10:40:39;;;;;;;8.00;2.20;;;11.60;99.90;;;;;;5013992;28;20032;-78
2022/12/24 10:43:15;;;;;;;7.45;1.70;;;11.60;99.90;;;;;;5008691;28;20554;-78
2022/12/24 10:45:46;;;;;;;9.23;2.28;;;11.60;99.90;;;;;;5008900;28;20493;-77
2022/12/24 10:48:20;;;;;;;9.43;2.00;;;11.60;99.90;;;;;;5010825;28;20026;-77
2022/12/24 10:50:53;;;;;;;12.13;2.55;;;11.60;99.90;;;;;;5007527;28;20030;-78
2022/12/24 10:53:38;;;;;;;12.63;2.20;;;11.60;99.90;;;;;;5009769;28;20027;-78
2022/12/24 10:56:06;;;;;;;15.45;2.42;;;11.60;99.90;;;;;;5012192;28;20029;-79
2022/12/24 10:58:33;;;;;;;10.57;2.25;;;11.60;99.90;;;;;;5009917;28;20025;-78
2022/12/24 11:00:58;;;;;;;11.55;2.42;;;11.60;99.90;;;;;;5007823;28;20040;-78
2022/12/24 11:03:28;;;;;;;9.13;2.28;;;11.60;99.90;;;;;;5007229;28;20109;-78
2022/12/24 11:06:13;;;;;;;9.77;2.10;;;11.60;99.90;;;;;;5012945;28;20115;-78
2022/12/24 11:08:42;;;;;;;10.02;2.80;;;11.70;99.90;;;;;;5008627;28;20117;-78
2022/12/24 11:11:19;;;;;;;16.13;3.00;;;11.70;99.90;;;;;;5012057;28;20026;-78
2022/12/24 11:13:50;;;;;;;8.45;2.00;;;11.70;99.90;;;;;;4999884;28;20021;-78
2022/12/24 11:16:28;;;;;;;12.48;2.40;;;11.70;99.90;;;;;;5002135;28;20465;-79
2022/12/24 11:18:56;;;;;;;8.38;2.28;;;11.70;99.90;;;;;;4999196;28;20026;-79
2022/12/24 11:21:28;;;;;;;9.27;2.45;;;11.70;99.90;;;;;;5005796;28;20026;-78
2022/12/24 11:24:13;;;;;;;9.18;1.73;;;11.70;99.90;;;;;;5007547;28;20494;-78
2022/12/24 11:26:43;;;;;;;11.95;2.55;;;11.70;99.90;;;;;;5005205;28;20034;-79
2022/12/24 11:29:26;;;;;;;5.97;1.73;;;11.80;99.90;;;;;;5000130;28;20037;-78
2022/12/24 11:32:08;;;;;;;7.07;1.75;;;11.80;99.90;;;;;;5005087;28;20038;-78
2022/12/24 11:34:34;;;;;;;7.85;1.92;;;11.90;99.90;;;;;;5007951;28;20022;-78
2022/12/24 11:37:17;;;;;;;11.98;2.13;;;11.80;99.90;;;;;;5010388;28;20140;-78
2022/12/24 11:39:54;;;;;;;9.70;2.27;;;11.90;99.90;;;;;;5008993;28;20367;-78
2022/12/24 11:42:32;;;;;;;11.27;2.17;;;11.90;99.90;;;;;;5007069;28;20021;-78
2022/12/24 11:45:00;;;;;;;9.38;2.30;;;12.00;99.90;;;;;;5011872;28;20030;-79
2022/12/24 11:47:39;;;;;;;8.40;2.10;;;12.00;99.90;;;;;;5010249;28;20025;-79
2022/12/24 11:50:23;;;;;;;6.43;1.60;;;12.00;99.90;;;;;;5011331;28;20083;-79
2022/12/24 11:52:57;;;;;;;12.60;1.83;;;12.10;99.90;;;;;;5008041;28;20478;-78
2022/12/24 11:55:23;;;;;;;10.43;2.70;;;12.10;99.90;;;;;;5008013;28;20022;-79
2022/12/24 11:58:10;;;;;;;11.05;2.88;;;12.10;99.90;;;;;;5006244;28;20474;-78
2022/12/24 12:00:38;;;;;;;6.78;2.15;;;12.20;99.90;;;;;;5010430;28;20021;-80
2022/12/24 12:03:40;;;;;;;5.78;1.83;;;12.20;99.90;;;;;;5009571;28;20018;-79
2022/12/24 12:06:22;;;;;;;11.75;2.08;;;12.10;99.90;;;;;;4980483;28;20069;-79
2022/12/24 12:08:51;;;;;;;12.48;2.50;;;12.10;99.90;;;;;;5008979;28;20080;-79
2022/12/24 12:11:18;;;;;;;8.95;2.28;;;12.20;99.90;;;;;;5010190;28;20050;-79
2022/12/24 12:13:45;;;;;;;8.02;1.67;;;12.20;99.90;;;;;;5008379;28;20498;-79
2022/12/24 12:19:53;;;;;;;9.63;2.53;;;12.20;99.90;;;;;;5012904;28;20056;-79
2022/12/24 12:22:44;;;;;;;8.60;1.77;;;12.20;99.90;;;;;;5013267;28;20025;-79
2022/12/24 12:25:25;;;;;;;9.27;2.28;;;12.20;99.90;;;;;;5012135;28;20457;-80
2022/12/24 12:27:54;;;;;;;10.75;1.88;;;12.20;99.90;;;;;;5013201;28;20026;-79
2022/12/24 12:30:21;;;;;;;9.60;1.80;;;12.20;99.90;;;;;;5014151;28;20034;-79
2022/12/24 12:33:10;;;;;;;13.50;3.13;;;12.20;99.90;;;;;;5007985;28;20490;-79
2022/12/24 12:35:40;;;;;;;11.93;2.63;;;12.20;99.90;;;;;;5028818;28;20036;-79
2022/12/24 12:38:12;;;;;;;11.35;1.88;;;12.30;99.90;;;;;;5011134;28;20022;-78
2022/12/24 12:40:58;;;;;;;6.47;1.45;;;12.40;99.90;;;;;;5011155;28;20029;-79
2022/12/24 12:43:52;;;;;;;7.47;1.75;;;12.60;99.90;;;;;;5025934;28;20573;-79
2022/12/24 12:46:36;;;;;;;;;;;12.70;99.90;;;;;;4988863;28;20533;-79
2022/12/24 12:49:22;;;;;;;10.88;2.55;;;12.80;99.90;;;;;;5016272;28;19936;-79
2022/12/24 12:51:52;;;;;;;9.57;2.00;;;12.90;99.90;;;;;;5010816;28;20025;-79
2022/12/24 12:54:34;;;;;;;8.00;2.00;;;13.00;99.90;;;;;;5016359;28;20087;-79
2022/12/24 12:57:17;;;;;;;8.35;2.65;;;13.00;99.90;;;;;;5009541;28;20028;-79
2022/12/24 12:59:56;;;;;;;13.15;2.65;;;13.00;99.90;;;;;;5010201;28;20018;-79
2022/12/24 13:02:30;;;;;;;10.43;2.20;;;12.90;99.90;;;;;;5023174;28;20463;-79
2022/12/24 13:05:33;;;;;;;11.07;2.55;;;12.80;99.90;;;;;;5011982;28;20038;-79
2022/12/24 13:08:02;;;;;;;8.85;2.38;;;12.70;99.90;;;;;;5012603;28;20029;-79
2022/12/24 13:10:52;;;;;;;7.65;1.95;;;12.70;99.90;;;;;;5012659;28;20036;-79